sensor_id;sensor_type;location;lat;lon;timestamp;P1;durP1;ratioP1;P2;durP2;ratioP2
3443;SDS011;1736;52.068;6.968;2023-08-12T00:01:47;25.03;;;16.40;;
3443;SDS011;1736;52.068;6.968;2023-08-12T00:04:13;27.47;;;17.27;;
3443;SDS011;1736;52.068;6.968;2023-08-12T00:06:41;31.23;;;16.27;;
3443;SDS011;1736;52.068;6.968;2023-08-12T00:09:08;27.13;;;17.33;;
3443;SDS011;1736;52.068;6.968;2023-08-12T00:11:37;29.43;;;17.73;;
3443;SDS011;1736;52.068;6.968;2023-08-12T00:14:04;35.23;;;17.70;;
3443;SDS011;1736;52.068;6.968;2023-08-12T00:16:30;27.60;;;17.80;;
3443;SDS011;1736;52.068;6.968;2023-08-12T00:18:57;27.33;;;16.90;;
3443;SDS011;1736;52.068;6.968;2023-08-12T00:21:24;29.57;;;16.43;;
3443;SDS011;1736;52.068;6.968;2023-08-12T00:23:51;24.87;;;14.80;;
3443;SDS011;1736;52.068;6.968;2023-08-12T00:26:18;23.27;;;14.67;;
3443;SDS011;1736;52.068;6.968;2023-08-12T00:28:48;16.60;;;12.90;;
3443;SDS011;1736;52.068;6.968;2023-08-12T00:31:15;17.70;;;12.10;;
3443;SDS011;1736;52.068;6.968;2023-08-12T00:33:41;20.67;;;12.37;;
3443;SDS011;1736;52.068;6.968;2023-08-12T00:36:08;17.50;;;12.67;;
3443;SDS011;1736;52.068;6.968;2023-08-12T00:38:34;15.23;;;12.50;;
3443;SDS011;1736;52.068;6.968;2023-08-12T00:41:01;19.13;;;11.70;;
3443;SDS011;1736;52.068;6.968;2023-08-12T00:43:28;15.23;;;11.90;;
3443;SDS011;1736;52.068;6.968;2023-08-12T00:45:55;18.77;;;12.13;;
3443;SDS011;1736;52.068;6.968;2023-08-12T00:48:22;19.13;;;12.23;;
3443;SDS011;1736;52.068;6.968;2023-08-12T00:50:49;18.43;;;13.37;;
3443;SDS011;1736;52.068;6.968;2023-08-12T00:53:16;20.00;;;12.97;;
3443;SDS011;1736;52.068;6.968;2023-08-12T00:55:43;19.83;;;13.57;;
3443;SDS011;1736;52.068;6.968;2023-08-12T00:58:10;19.90;;;13.50;;
3443;SDS011;1736;52.068;6.968;2023-08-12T01:00:37;18.37;;;13.50;;
3443;SDS011;1736;52.068;6.968;2023-08-12T01:03:05;24.70;;;14.80;;
3443;SDS011;1736;52.068;6.968;2023-08-12T01:05:31;19.60;;;12.43;;
3443;SDS011;1736;52.068;6.968;2023-08-12T01:07:59;21.67;;;13.43;;
3443;SDS011;1736;52.068;6.968;2023-08-12T01:10:27;20.13;;;13.93;;
3443;SDS011;1736;52.068;6.968;2023-08-12T01:12:59;16.00;;;13.27;;
3443;SDS011;1736;52.068;6.968;2023-08-12T01:15:34;19.80;;;13.07;;
3443;SDS011;1736;52.068;6.968;2023-08-12T01:18:02;16.77;;;13.30;;
3443;SDS011;1736;52.068;6.968;2023-08-12T01:20:33;17.07;;;12.60;;
3443;SDS011;1736;52.068;6.968;2023-08-12T01:23:06;19.70;;;13.60;;
3443;SDS011;1736;52.068;6.968;2023-08-12T01:25:35;18.30;;;13.00;;
3443;SDS011;1736;52.068;6.968;2023-08-12T01:28:01;20.43;;;13.60;;
3443;SDS011;1736;52.068;6.968;2023-08-12T01:30:28;18.33;;;13.00;;
3443;SDS011;1736;52.068;6.968;2023-08-12T01:32:56;18.07;;;13.13;;
3443;SDS011;1736;52.068;6.968;2023-08-12T01:35:30;18.30;;;13.87;;
3443;SDS011;1736;52.068;6.968;2023-08-12T01:38:02;22.60;;;13.83;;
3443;SDS011;1736;52.068;6.968;2023-08-12T01:40:33;21.87;;;13.47;;
3443;SDS011;1736;52.068;6.968;2023-08-12T01:43:01;21.47;;;14.57;;
3443;SDS011;1736;52.068;6.968;2023-08-12T01:45:30;22.50;;;14.23;;
3443;SDS011;1736;52.068;6.968;2023-08-12T01:47:57;22.97;;;14.53;;
3443;SDS011;1736;52.068;6.968;2023-08-12T01:50:23;17.80;;;14.47;;
3443;SDS011;1736;52.068;6.968;2023-08-12T01:52:50;23.27;;;14.60;;
3443;SDS011;1736;52.068;6.968;2023-08-12T01:55:17;19.17;;;14.20;;
3443;SDS011;1736;52.068;6.968;2023-08-12T01:57:45;18.17;;;13.37;;
3443;SDS011;1736;52.068;6.968;2023-08-12T02:00:12;17.50;;;12.33;;
3443;SDS011;1736;52.068;6.968;2023-08-12T02:02:39;18.63;;;13.37;;
3443;SDS011;1736;52.068;6.968;2023-08-12T02:05:05;18.07;;;13.00;;
3443;SDS011;1736;52.068;6.968;2023-08-12T02:07:32;15.30;;;11.30;;
3443;SDS011;1736;52.068;6.968;2023-08-12T02:09:59;19.23;;;12.67;;
3443;SDS011;1736;52.068;6.968;2023-08-12T02:12:25;18.73;;;12.83;;
3443;SDS011;1736;52.068;6.968;2023-08-12T02:14:53;21.00;;;13.97;;
3443;SDS011;1736;52.068;6.968;2023-08-12T02:17:20;17.90;;;13.13;;
3443;SDS011;1736;52.068;6.968;2023-08-12T02:19:47;24.50;;;14.20;;
3443;SDS011;1736;52.068;6.968;2023-08-12T02:22:13;20.67;;;14.10;;
3443;SDS011;1736;52.068;6.968;2023-08-12T02:24:40;17.90;;;12.80;;
3443;SDS011;1736;52.068;6.968;2023-08-12T02:27:06;20.43;;;14.03;;
3443;SDS011;1736;52.068;6.968;2023-08-12T02:29:33;15.57;;;12.43;;
3443;SDS011;1736;52.068;6.968;2023-08-12T02:32:01;19.03;;;13.30;;
3443;SDS011;1736;52.068;6.968;2023-08-12T02:34:27;18.37;;;13.87;;
3443;SDS011;1736;52.068;6.968;2023-08-12T02:36:54;16.83;;;11.93;;
3443;SDS011;1736;52.068;6.968;2023-08-12T02:39:20;17.50;;;12.13;;
3443;SDS011;1736;52.068;6.968;2023-08-12T02:41:47;20.47;;;12.90;;
3443;SDS011;1736;52.068;6.968;2023-08-12T02:44:14;27.00;;;14.10;;
3443;SDS011;1736;52.068;6.968;2023-08-12T02:46:40;16.20;;;12.27;;
3443;SDS011;1736;52.068;6.968;2023-08-12T02:49:08;17.03;;;12.97;;
3443;SDS011;1736;52.068;6.968;2023-08-12T02:51:35;16.03;;;11.97;;
3443;SDS011;1736;52.068;6.968;2023-08-12T02:54:02;16.70;;;12.27;;
3443;SDS011;1736;52.068;6.968;2023-08-12T02:56:28;20.43;;;12.80;;
3443;SDS011;1736;52.068;6.968;2023-08-12T02:58:55;15.70;;;12.47;;
3443;SDS011;1736;52.068;6.968;2023-08-12T03:01:22;16.70;;;12.43;;
3443;SDS011;1736;52.068;6.968;2023-08-12T03:03:49;15.60;;;11.90;;
3443;SDS011;1736;52.068;6.968;2023-08-12T03:06:17;20.20;;;13.10;;
3443;SDS011;1736;52.068;6.968;2023-08-12T03:08:44;18.20;;;12.07;;
3443;SDS011;1736;52.068;6.968;2023-08-12T03:11:11;16.10;;;11.70;;
3443;SDS011;1736;52.068;6.968;2023-08-12T03:13:37;17.27;;;12.17;;
3443;SDS011;1736;52.068;6.968;2023-08-12T03:16:10;17.07;;;11.77;;
3443;SDS011;1736;52.068;6.968;2023-08-12T03:18:38;16.80;;;12.07;;
3443;SDS011;1736;52.068;6.968;2023-08-12T03:21:05;21.60;;;13.27;;
3443;SDS011;1736;52.068;6.968;2023-08-12T03:23:33;16.30;;;12.07;;
3443;SDS011;1736;52.068;6.968;2023-08-12T03:26:00;18.83;;;13.43;;
3443;SDS011;1736;52.068;6.968;2023-08-12T03:28:26;17.97;;;12.20;;
3443;SDS011;1736;52.068;6.968;2023-08-12T03:30:53;18.30;;;13.43;;
3443;SDS011;1736;52.068;6.968;2023-08-12T03:33:20;17.47;;;12.60;;
3443;SDS011;1736;52.068;6.968;2023-08-12T03:35:46;20.87;;;12.17;;
3443;SDS011;1736;52.068;6.968;2023-08-12T03:38:13;18.27;;;12.93;;
3443;SDS011;1736;52.068;6.968;2023-08-12T03:40:42;20.20;;;12.90;;
3443;SDS011;1736;52.068;6.968;2023-08-12T03:43:09;16.30;;;11.80;;
3443;SDS011;1736;52.068;6.968;2023-08-12T03:45:39;18.77;;;12.80;;
3443;SDS011;1736;52.068;6.968;2023-08-12T03:48:06;20.83;;;12.20;;
3443;SDS011;1736;52.068;6.968;2023-08-12T03:50:33;20.03;;;12.77;;
3443;SDS011;1736;52.068;6.968;2023-08-12T03:53:00;18.13;;;12.50;;
3443;SDS011;1736;52.068;6.968;2023-08-12T03:55:26;17.60;;;11.90;;
3443;SDS011;1736;52.068;6.968;2023-08-12T03:57:54;20.57;;;12.60;;
3443;SDS011;1736;52.068;6.968;2023-08-12T04:00:21;20.30;;;11.90;;
3443;SDS011;1736;52.068;6.968;2023-08-12T04:02:48;20.50;;;13.43;;
3443;SDS011;1736;52.068;6.968;2023-08-12T04:05:14;20.73;;;13.23;;
3443;SDS011;1736;52.068;6.968;2023-08-12T04:07:41;23.73;;;12.53;;
3443;SDS011;1736;52.068;6.968;2023-08-12T04:10:08;19.93;;;14.37;;
3443;SDS011;1736;52.068;6.968;2023-08-12T04:12:36;21.80;;;13.57;;
3443;SDS011;1736;52.068;6.968;2023-08-12T04:15:05;16.97;;;11.97;;
3443;SDS011;1736;52.068;6.968;2023-08-12T04:17:32;17.83;;;13.23;;
3443;SDS011;1736;52.068;6.968;2023-08-12T04:19:59;23.30;;;12.23;;
3443;SDS011;1736;52.068;6.968;2023-08-12T04:22:26;16.53;;;12.20;;
3443;SDS011;1736;52.068;6.968;2023-08-12T04:24:53;17.17;;;12.00;;
3443;SDS011;1736;52.068;6.968;2023-08-12T04:27:19;18.00;;;12.27;;
3443;SDS011;1736;52.068;6.968;2023-08-12T04:29:46;18.80;;;11.83;;
3443;SDS011;1736;52.068;6.968;2023-08-12T04:32:14;17.73;;;12.13;;
3443;SDS011;1736;52.068;6.968;2023-08-12T04:34:41;19.80;;;12.70;;
3443;SDS011;1736;52.068;6.968;2023-08-12T04:37:07;20.23;;;12.60;;
3443;SDS011;1736;52.068;6.968;2023-08-12T04:39:34;20.53;;;12.07;;
3443;SDS011;1736;52.068;6.968;2023-08-12T04:42:01;19.93;;;12.43;;
3443;SDS011;1736;52.068;6.968;2023-08-12T04:44:27;16.60;;;11.80;;
3443;SDS011;1736;52.068;6.968;2023-08-12T04:46:54;20.13;;;12.13;;
3443;SDS011;1736;52.068;6.968;2023-08-12T04:49:22;17.43;;;11.60;;
3443;SDS011;1736;52.068;6.968;2023-08-12T04:51:51;20.40;;;12.50;;
3443;SDS011;1736;52.068;6.968;2023-08-12T04:54:17;19.10;;;12.40;;
3443;SDS011;1736;52.068;6.968;2023-08-12T04:56:44;15.67;;;11.40;;
3443;SDS011;1736;52.068;6.968;2023-08-12T04:59:10;18.37;;;12.00;;
3443;SDS011;1736;52.068;6.968;2023-08-12T05:01:37;17.00;;;12.00;;
3443;SDS011;1736;52.068;6.968;2023-08-12T05:04:04;17.23;;;11.93;;
3443;SDS011;1736;52.068;6.968;2023-08-12T05:06:32;16.33;;;11.57;;
3443;SDS011;1736;52.068;6.968;2023-08-12T05:08:59;21.73;;;12.87;;
3443;SDS011;1736;52.068;6.968;2023-08-12T05:11:25;16.90;;;12.60;;
3443;SDS011;1736;52.068;6.968;2023-08-12T05:13:52;18.93;;;12.53;;
3443;SDS011;1736;52.068;6.968;2023-08-12T05:16:19;16.87;;;11.03;;
3443;SDS011;1736;52.068;6.968;2023-08-12T05:18:46;21.63;;;12.30;;
3443;SDS011;1736;52.068;6.968;2023-08-12T05:21:12;20.23;;;11.63;;
3443;SDS011;1736;52.068;6.968;2023-08-12T05:23:40;15.40;;;11.13;;
3443;SDS011;1736;52.068;6.968;2023-08-12T05:26:07;23.90;;;11.97;;
3443;SDS011;1736;52.068;6.968;2023-08-12T05:28:33;16.10;;;11.83;;
3443;SDS011;1736;52.068;6.968;2023-08-12T05:31:00;16.37;;;11.97;;
3443;SDS011;1736;52.068;6.968;2023-08-12T05:33:26;19.73;;;11.57;;
3443;SDS011;1736;52.068;6.968;2023-08-12T05:35:53;24.47;;;12.20;;
3443;SDS011;1736;52.068;6.968;2023-08-12T05:38:20;21.23;;;12.97;;
3443;SDS011;1736;52.068;6.968;2023-08-12T05:40:48;20.50;;;12.80;;
3443;SDS011;1736;52.068;6.968;2023-08-12T05:43:14;21.40;;;12.40;;
3443;SDS011;1736;52.068;6.968;2023-08-12T05:45:41;19.30;;;12.30;;
3443;SDS011;1736;52.068;6.968;2023-08-12T05:48:07;19.00;;;11.33;;
3443;SDS011;1736;52.068;6.968;2023-08-12T05:50:34;19.57;;;12.30;;
3443;SDS011;1736;52.068;6.968;2023-08-12T05:53:01;18.97;;;12.00;;
3443;SDS011;1736;52.068;6.968;2023-08-12T05:55:27;19.40;;;10.43;;
3443;SDS011;1736;52.068;6.968;2023-08-12T05:57:55;16.97;;;12.50;;
3443;SDS011;1736;52.068;6.968;2023-08-12T06:00:22;23.13;;;13.80;;
3443;SDS011;1736;52.068;6.968;2023-08-12T06:02:48;18.30;;;12.20;;
3443;SDS011;1736;52.068;6.968;2023-08-12T06:05:15;19.57;;;12.80;;
3443;SDS011;1736;52.068;6.968;2023-08-12T06:07:41;22.27;;;13.03;;
3443;SDS011;1736;52.068;6.968;2023-08-12T06:10:08;19.33;;;12.90;;
3443;SDS011;1736;52.068;6.968;2023-08-12T06:12:35;19.13;;;13.40;;
3443;SDS011;1736;52.068;6.968;2023-08-12T06:15:04;25.00;;;14.13;;
3443;SDS011;1736;52.068;6.968;2023-08-12T06:17:31;22.17;;;13.80;;
3443;SDS011;1736;52.068;6.968;2023-08-12T06:19:58;26.83;;;15.10;;
3443;SDS011;1736;52.068;6.968;2023-08-12T06:22:25;20.73;;;14.10;;
3443;SDS011;1736;52.068;6.968;2023-08-12T06:24:51;20.90;;;13.33;;
3443;SDS011;1736;52.068;6.968;2023-08-12T06:27:18;26.73;;;14.90;;
3443;SDS011;1736;52.068;6.968;2023-08-12T06:29:45;22.70;;;13.37;;
3443;SDS011;1736;52.068;6.968;2023-08-12T06:32:14;21.10;;;14.10;;
3443;SDS011;1736;52.068;6.968;2023-08-12T06:34:40;20.17;;;14.00;;
3443;SDS011;1736;52.068;6.968;2023-08-12T06:37:07;18.53;;;13.20;;
3443;SDS011;1736;52.068;6.968;2023-08-12T06:39:34;23.47;;;13.57;;
3443;SDS011;1736;52.068;6.968;2023-08-12T06:42:00;28.77;;;14.40;;
3443;SDS011;1736;52.068;6.968;2023-08-12T06:44:28;19.80;;;14.17;;
3443;SDS011;1736;52.068;6.968;2023-08-12T06:46:55;21.43;;;15.03;;
3443;SDS011;1736;52.068;6.968;2023-08-12T06:49:22;20.73;;;14.90;;
3443;SDS011;1736;52.068;6.968;2023-08-12T06:51:49;22.97;;;14.73;;
3443;SDS011;1736;52.068;6.968;2023-08-12T06:54:15;25.37;;;17.90;;
3443;SDS011;1736;52.068;6.968;2023-08-12T06:56:42;27.90;;;17.70;;
3443;SDS011;1736;52.068;6.968;2023-08-12T06:59:09;29.20;;;18.13;;
3443;SDS011;1736;52.068;6.968;2023-08-12T07:01:36;27.40;;;18.97;;
3443;SDS011;1736;52.068;6.968;2023-08-12T07:04:02;31.40;;;21.00;;
3443;SDS011;1736;52.068;6.968;2023-08-12T07:06:30;43.40;;;21.90;;
3443;SDS011;1736;52.068;6.968;2023-08-12T07:08:57;28.80;;;19.77;;
3443;SDS011;1736;52.068;6.968;2023-08-12T07:11:23;26.97;;;19.13;;
3443;SDS011;1736;52.068;6.968;2023-08-12T07:13:50;31.10;;;19.20;;
3443;SDS011;1736;52.068;6.968;2023-08-12T07:16:17;24.60;;;17.90;;
3443;SDS011;1736;52.068;6.968;2023-08-12T07:18:43;30.40;;;17.80;;
3443;SDS011;1736;52.068;6.968;2023-08-12T07:21:10;28.70;;;18.03;;
3443;SDS011;1736;52.068;6.968;2023-08-12T07:23:38;31.20;;;19.67;;
3443;SDS011;1736;52.068;6.968;2023-08-12T07:26:04;26.87;;;18.17;;
3443;SDS011;1736;52.068;6.968;2023-08-12T07:28:31;41.37;;;18.60;;
3443;SDS011;1736;52.068;6.968;2023-08-12T07:31:00;32.77;;;19.30;;
3443;SDS011;1736;52.068;6.968;2023-08-12T07:33:26;31.47;;;19.57;;
3443;SDS011;1736;52.068;6.968;2023-08-12T07:35:53;35.40;;;18.37;;
3443;SDS011;1736;52.068;6.968;2023-08-12T07:38:19;33.97;;;19.90;;
3443;SDS011;1736;52.068;6.968;2023-08-12T07:40:47;35.97;;;19.40;;
3443;SDS011;1736;52.068;6.968;2023-08-12T07:43:14;36.20;;;18.80;;
3443;SDS011;1736;52.068;6.968;2023-08-12T07:45:41;28.10;;;17.67;;
3443;SDS011;1736;52.068;6.968;2023-08-12T07:48:07;30.20;;;17.00;;
3443;SDS011;1736;52.068;6.968;2023-08-12T07:50:34;23.37;;;15.63;;
3443;SDS011;1736;52.068;6.968;2023-08-12T07:53:00;24.20;;;14.60;;
3443;SDS011;1736;52.068;6.968;2023-08-12T07:55:27;20.37;;;13.43;;
3443;SDS011;1736;52.068;6.968;2023-08-12T07:57:56;20.43;;;12.80;;
3443;SDS011;1736;52.068;6.968;2023-08-12T08:00:22;19.60;;;13.20;;
3443;SDS011;1736;52.068;6.968;2023-08-12T08:02:49;19.23;;;11.57;;
3443;SDS011;1736;52.068;6.968;2023-08-12T08:05:16;16.13;;;12.37;;
3443;SDS011;1736;52.068;6.968;2023-08-12T08:07:42;16.37;;;11.40;;
3443;SDS011;1736;52.068;6.968;2023-08-12T08:10:09;18.33;;;12.07;;
3443;SDS011;1736;52.068;6.968;2023-08-12T08:12:36;18.47;;;12.50;;
3443;SDS011;1736;52.068;6.968;2023-08-12T08:15:05;19.03;;;12.60;;
3443;SDS011;1736;52.068;6.968;2023-08-12T08:17:32;18.63;;;12.80;;
3443;SDS011;1736;52.068;6.968;2023-08-12T08:19:58;13.10;;;10.80;;
3443;SDS011;1736;52.068;6.968;2023-08-12T08:22:25;19.20;;;11.10;;
3443;SDS011;1736;52.068;6.968;2023-08-12T08:24:51;13.83;;;10.30;;
3443;SDS011;1736;52.068;6.968;2023-08-12T08:27:18;12.87;;;9.87;;
3443;SDS011;1736;52.068;6.968;2023-08-12T08:29:45;13.27;;;10.00;;
3443;SDS011;1736;52.068;6.968;2023-08-12T08:32:13;12.30;;;9.63;;
3443;SDS011;1736;52.068;6.968;2023-08-12T08:34:39;11.40;;;9.03;;
3443;SDS011;1736;52.068;6.968;2023-08-12T08:37:06;8.90;;;7.80;;
3443;SDS011;1736;52.068;6.968;2023-08-12T08:39:32;9.93;;;8.37;;
3443;SDS011;1736;52.068;6.968;2023-08-12T08:41:59;6.93;;;5.77;;
3443;SDS011;1736;52.068;6.968;2023-08-12T08:44:27;5.40;;;4.47;;
3443;SDS011;1736;52.068;6.968;2023-08-12T08:46:56;4.67;;;4.27;;
3443;SDS011;1736;52.068;6.968;2023-08-12T08:49:25;5.23;;;4.77;;
3443;SDS011;1736;52.068;6.968;2023-08-12T08:51:54;4.67;;;4.20;;
3443;SDS011;1736;52.068;6.968;2023-08-12T08:54:21;4.93;;;4.23;;
3443;SDS011;1736;52.068;6.968;2023-08-12T08:56:48;4.17;;;3.70;;
3443;SDS011;1736;52.068;6.968;2023-08-12T08:59:15;3.97;;;3.67;;
3443;SDS011;1736;52.068;6.968;2023-08-12T09:01:42;4.00;;;3.70;;
3443;SDS011;1736;52.068;6.968;2023-08-12T09:04:12;4.07;;;3.67;;
3443;SDS011;1736;52.068;6.968;2023-08-12T09:06:43;3.57;;;3.37;;
3443;SDS011;1736;52.068;6.968;2023-08-12T09:09:12;3.60;;;3.40;;
3443;SDS011;1736;52.068;6.968;2023-08-12T09:11:42;3.83;;;3.53;;
3443;SDS011;1736;52.068;6.968;2023-08-12T09:14:10;4.00;;;3.70;;
3443;SDS011;1736;52.068;6.968;2023-08-12T09:16:37;3.90;;;3.60;;
3443;SDS011;1736;52.068;6.968;2023-08-12T09:19:03;6.83;;;3.83;;
3443;SDS011;1736;52.068;6.968;2023-08-12T09:21:31;4.47;;;4.07;;
3443;SDS011;1736;52.068;6.968;2023-08-12T09:23:59;4.70;;;4.30;;
3443;SDS011;1736;52.068;6.968;2023-08-12T09:26:29;5.07;;;4.67;;
3443;SDS011;1736;52.068;6.968;2023-08-12T09:28:55;5.00;;;4.60;;
3443;SDS011;1736;52.068;6.968;2023-08-12T09:31:22;4.30;;;4.00;;
3443;SDS011;1736;52.068;6.968;2023-08-12T09:33:50;4.90;;;4.50;;
3443;SDS011;1736;52.068;6.968;2023-08-12T09:36:17;5.60;;;5.20;;
3443;SDS011;1736;52.068;6.968;2023-08-12T09:38:44;5.50;;;5.10;;
3443;SDS011;1736;52.068;6.968;2023-08-12T09:41:12;5.50;;;5.03;;
3443;SDS011;1736;52.068;6.968;2023-08-12T09:43:40;6.00;;;5.50;;
3443;SDS011;1736;52.068;6.968;2023-08-12T09:46:10;5.10;;;4.70;;
3443;SDS011;1736;52.068;6.968;2023-08-12T09:48:37;5.30;;;4.90;;
3443;SDS011;1736;52.068;6.968;2023-08-12T09:51:04;5.13;;;4.70;;
3443;SDS011;1736;52.068;6.968;2023-08-12T09:53:32;5.60;;;5.03;;
3443;SDS011;1736;52.068;6.968;2023-08-12T09:55:59;5.63;;;5.23;;
3443;SDS011;1736;52.068;6.968;2023-08-12T09:58:33;5.23;;;4.80;;
3443;SDS011;1736;52.068;6.968;2023-08-12T10:01:02;5.10;;;4.60;;
3443;SDS011;1736;52.068;6.968;2023-08-12T10:03:29;4.13;;;3.83;;
3443;SDS011;1736;52.068;6.968;2023-08-12T10:05:58;4.03;;;3.50;;
3443;SDS011;1736;52.068;6.968;2023-08-12T10:08:26;4.20;;;3.60;;
3443;SDS011;1736;52.068;6.968;2023-08-12T10:10:53;4.07;;;3.77;;
3443;SDS011;1736;52.068;6.968;2023-08-12T10:13:20;4.40;;;4.00;;
3443;SDS011;1736;52.068;6.968;2023-08-12T10:15:49;3.87;;;3.53;;
3443;SDS011;1736;52.068;6.968;2023-08-12T10:18:16;2.87;;;2.67;;
3443;SDS011;1736;52.068;6.968;2023-08-12T10:20:44;2.70;;;2.60;;
3443;SDS011;1736;52.068;6.968;2023-08-12T10:23:12;3.07;;;2.87;;
3443;SDS011;1736;52.068;6.968;2023-08-12T10:25:41;2.40;;;2.20;;
3443;SDS011;1736;52.068;6.968;2023-08-12T10:28:09;4.23;;;3.00;;
3443;SDS011;1736;52.068;6.968;2023-08-12T10:30:37;2.23;;;2.13;;
3443;SDS011;1736;52.068;6.968;2023-08-12T10:33:08;2.07;;;1.93;;
3443;SDS011;1736;52.068;6.968;2023-08-12T10:35:41;2.50;;;2.30;;
3443;SDS011;1736;52.068;6.968;2023-08-12T10:38:09;2.70;;;2.23;;
3443;SDS011;1736;52.068;6.968;2023-08-12T10:40:37;2.60;;;2.40;;
3443;SDS011;1736;52.068;6.968;2023-08-12T10:43:04;3.00;;;2.80;;
3443;SDS011;1736;52.068;6.968;2023-08-12T10:45:41;2.63;;;2.50;;
3443;SDS011;1736;52.068;6.968;2023-08-12T10:48:16;2.83;;;2.67;;
3443;SDS011;1736;52.068;6.968;2023-08-12T10:50:44;3.53;;;3.27;;
3443;SDS011;1736;52.068;6.968;2023-08-12T10:53:22;3.90;;;3.60;;
3443;SDS011;1736;52.068;6.968;2023-08-12T10:55:54;3.57;;;3.30;;
3443;SDS011;1736;52.068;6.968;2023-08-12T10:58:28;4.20;;;3.90;;
3443;SDS011;1736;52.068;6.968;2023-08-12T11:00:57;4.43;;;4.03;;
3443;SDS011;1736;52.068;6.968;2023-08-12T11:03:25;4.57;;;4.17;;
3443;SDS011;1736;52.068;6.968;2023-08-12T11:05:53;5.20;;;4.80;;
3443;SDS011;1736;52.068;6.968;2023-08-12T11:08:24;4.27;;;3.87;;
3443;SDS011;1736;52.068;6.968;2023-08-12T11:10:54;4.30;;;4.00;;
3443;SDS011;1736;52.068;6.968;2023-08-12T11:13:22;5.10;;;4.70;;
3443;SDS011;1736;52.068;6.968;2023-08-12T11:15:50;4.43;;;4.13;;
3443;SDS011;1736;52.068;6.968;2023-08-12T11:18:17;4.60;;;4.17;;
3443;SDS011;1736;52.068;6.968;2023-08-12T11:20:48;4.70;;;4.30;;
3443;SDS011;1736;52.068;6.968;2023-08-12T11:23:16;12.43;;;4.37;;
3443;SDS011;1736;52.068;6.968;2023-08-12T11:25:42;4.47;;;4.07;;
3443;SDS011;1736;52.068;6.968;2023-08-12T11:28:10;4.10;;;3.60;;
3443;SDS011;1736;52.068;6.968;2023-08-12T11:30:37;3.67;;;3.37;;
3443;SDS011;1736;52.068;6.968;2023-08-12T11:33:07;3.57;;;3.27;;
3443;SDS011;1736;52.068;6.968;2023-08-12T11:35:34;3.60;;;3.30;;
3443;SDS011;1736;52.068;6.968;2023-08-12T11:38:03;3.63;;;3.40;;
3443;SDS011;1736;52.068;6.968;2023-08-12T11:40:31;3.53;;;3.30;;
3443;SDS011;1736;52.068;6.968;2023-08-12T11:42:58;3.80;;;3.50;;
3443;SDS011;1736;52.068;6.968;2023-08-12T11:45:25;3.43;;;3.20;;
3443;SDS011;1736;52.068;6.968;2023-08-12T11:47:52;4.10;;;3.20;;
3443;SDS011;1736;52.068;6.968;2023-08-12T11:50:20;3.37;;;3.13;;
3443;SDS011;1736;52.068;6.968;2023-08-12T11:52:47;3.17;;;2.97;;
3443;SDS011;1736;52.068;6.968;2023-08-12T11:55:16;5.73;;;2.83;;
3443;SDS011;1736;52.068;6.968;2023-08-12T11:57:43;2.50;;;2.30;;
3443;SDS011;1736;52.068;6.968;2023-08-12T12:00:10;2.53;;;2.43;;
3443;SDS011;1736;52.068;6.968;2023-08-12T12:02:40;2.00;;;1.90;;
3443;SDS011;1736;52.068;6.968;2023-08-12T12:05:11;7.90;;;2.30;;
3443;SDS011;1736;52.068;6.968;2023-08-12T12:07:38;2.00;;;1.90;;
3443;SDS011;1736;52.068;6.968;2023-08-12T12:10:05;2.20;;;2.10;;
3443;SDS011;1736;52.068;6.968;2023-08-12T12:12:34;2.80;;;2.20;;
3443;SDS011;1736;52.068;6.968;2023-08-12T12:15:01;2.07;;;1.97;;
3443;SDS011;1736;52.068;6.968;2023-08-12T12:17:28;1.80;;;1.70;;
3443;SDS011;1736;52.068;6.968;2023-08-12T12:19:55;1.47;;;1.47;;
3443;SDS011;1736;52.068;6.968;2023-08-12T12:22:26;1.60;;;1.50;;
3443;SDS011;1736;52.068;6.968;2023-08-12T12:24:53;1.73;;;1.63;;
3443;SDS011;1736;52.068;6.968;2023-08-12T12:27:20;1.87;;;1.77;;
3443;SDS011;1736;52.068;6.968;2023-08-12T12:29:48;1.50;;;1.50;;
3443;SDS011;1736;52.068;6.968;2023-08-12T12:32:17;5.03;;;2.50;;
3443;SDS011;1736;52.068;6.968;2023-08-12T12:34:45;1.40;;;1.40;;
3443;SDS011;1736;52.068;6.968;2023-08-12T12:37:11;1.50;;;1.43;;
3443;SDS011;1736;52.068;6.968;2023-08-12T12:39:38;1.60;;;1.50;;
3443;SDS011;1736;52.068;6.968;2023-08-12T12:42:05;1.40;;;1.40;;
3443;SDS011;1736;52.068;6.968;2023-08-12T12:44:32;1.93;;;1.83;;
3443;SDS011;1736;52.068;6.968;2023-08-12T12:47:00;1.40;;;1.40;;
3443;SDS011;1736;52.068;6.968;2023-08-12T12:49:27;4.10;;;1.47;;
3443;SDS011;1736;52.068;6.968;2023-08-12T12:51:54;1.50;;;1.40;;
3443;SDS011;1736;52.068;6.968;2023-08-12T12:54:21;2.17;;;1.70;;
3443;SDS011;1736;52.068;6.968;2023-08-12T12:56:47;2.83;;;2.63;;
3443;SDS011;1736;52.068;6.968;2023-08-12T12:59:14;3.40;;;3.20;;
3443;SDS011;1736;52.068;6.968;2023-08-12T13:01:41;2.40;;;2.13;;
3443;SDS011;1736;52.068;6.968;2023-08-12T13:04:09;1.50;;;1.50;;
3443;SDS011;1736;52.068;6.968;2023-08-12T13:06:35;1.37;;;1.37;;
3443;SDS011;1736;52.068;6.968;2023-08-12T13:09:02;1.50;;;1.40;;
3443;SDS011;1736;52.068;6.968;2023-08-12T13:11:31;1.63;;;1.40;;
3443;SDS011;1736;52.068;6.968;2023-08-12T13:13:58;1.20;;;1.20;;
3443;SDS011;1736;52.068;6.968;2023-08-12T13:16:25;1.20;;;1.20;;
3443;SDS011;1736;52.068;6.968;2023-08-12T13:18:51;1.30;;;1.20;;
3443;SDS011;1736;52.068;6.968;2023-08-12T13:21:19;1.10;;;1.10;;
3443;SDS011;1736;52.068;6.968;2023-08-12T13:23:46;1.47;;;1.37;;
3443;SDS011;1736;52.068;6.968;2023-08-12T13:26:13;1.60;;;1.50;;
3443;SDS011;1736;52.068;6.968;2023-08-12T13:28:39;1.63;;;1.53;;
3443;SDS011;1736;52.068;6.968;2023-08-12T13:31:06;5.70;;;2.07;;
3443;SDS011;1736;52.068;6.968;2023-08-12T13:33:33;1.80;;;1.70;;
3443;SDS011;1736;52.068;6.968;2023-08-12T13:36:00;3.47;;;1.70;;
3443;SDS011;1736;52.068;6.968;2023-08-12T13:38:28;1.70;;;1.60;;
3443;SDS011;1736;52.068;6.968;2023-08-12T13:40:54;1.80;;;1.70;;
3443;SDS011;1736;52.068;6.968;2023-08-12T13:43:21;1.80;;;1.70;;
3443;SDS011;1736;52.068;6.968;2023-08-12T13:45:47;2.50;;;1.80;;
3443;SDS011;1736;52.068;6.968;2023-08-12T13:48:14;3.37;;;1.40;;
3443;SDS011;1736;52.068;6.968;2023-08-12T13:50:41;2.20;;;1.50;;
3443;SDS011;1736;52.068;6.968;2023-08-12T13:53:08;2.00;;;1.50;;
3443;SDS011;1736;52.068;6.968;2023-08-12T13:55:35;1.83;;;1.60;;
3443;SDS011;1736;52.068;6.968;2023-08-12T13:58:02;1.60;;;1.50;;
3443;SDS011;1736;52.068;6.968;2023-08-12T14:00:29;1.67;;;1.57;;
3443;SDS011;1736;52.068;6.968;2023-08-12T14:02:56;1.50;;;1.40;;
3443;SDS011;1736;52.068;6.968;2023-08-12T14:05:22;6.90;;;2.30;;
3443;SDS011;1736;52.068;6.968;2023-08-12T14:07:49;3.00;;;1.87;;
3443;SDS011;1736;52.068;6.968;2023-08-12T14:10:15;2.90;;;1.87;;
3443;SDS011;1736;52.068;6.968;2023-08-12T14:12:43;1.70;;;1.60;;
3443;SDS011;1736;52.068;6.968;2023-08-12T14:15:13;3.20;;;1.73;;
3443;SDS011;1736;52.068;6.968;2023-08-12T14:17:39;1.80;;;1.70;;
3443;SDS011;1736;52.068;6.968;2023-08-12T14:20:06;3.40;;;1.73;;
3443;SDS011;1736;52.068;6.968;2023-08-12T14:22:33;1.60;;;1.50;;
3443;SDS011;1736;52.068;6.968;2023-08-12T14:25:00;2.23;;;1.80;;
3443;SDS011;1736;52.068;6.968;2023-08-12T14:27:28;2.60;;;1.73;;
3443;SDS011;1736;52.068;6.968;2023-08-12T14:29:56;2.87;;;1.60;;
3443;SDS011;1736;52.068;6.968;2023-08-12T14:32:23;2.70;;;1.80;;
3443;SDS011;1736;52.068;6.968;2023-08-12T14:34:50;2.03;;;1.83;;
3443;SDS011;1736;52.068;6.968;2023-08-12T14:37:16;2.40;;;1.90;;
3443;SDS011;1736;52.068;6.968;2023-08-12T14:39:43;8.40;;;2.17;;
3443;SDS011;1736;52.068;6.968;2023-08-12T14:42:09;3.93;;;2.10;;
3443;SDS011;1736;52.068;6.968;2023-08-12T14:44:36;2.87;;;2.00;;
3443;SDS011;1736;52.068;6.968;2023-08-12T14:47:04;2.40;;;2.10;;
3443;SDS011;1736;52.068;6.968;2023-08-12T14:49:33;3.67;;;2.10;;
3443;SDS011;1736;52.068;6.968;2023-08-12T14:51:59;4.40;;;1.80;;
3443;SDS011;1736;52.068;6.968;2023-08-12T14:54:26;2.10;;;1.80;;
3443;SDS011;1736;52.068;6.968;2023-08-12T14:56:52;3.40;;;2.47;;
3443;SDS011;1736;52.068;6.968;2023-08-12T14:59:19;2.00;;;1.77;;
3443;SDS011;1736;52.068;6.968;2023-08-12T15:01:46;2.33;;;2.03;;